sensor_id;sensor_type;location;lat;lon;timestamp;P1;durP1;ratioP1;P2;durP2;ratioP2
55218;SDS011;65463;43.864;20.136;2023-03-14T00:00:58;39.58;;;13.25;;
55218;SDS011;65463;43.864;20.136;2023-03-14T00:03:24;47.25;;;15.73;;
55218;SDS011;65463;43.864;20.136;2023-03-14T00:05:50;52.58;;;15.07;;
55218;SDS011;65463;43.864;20.136;2023-03-14T00:08:16;44.63;;;15.20;;
55218;SDS011;65463;43.864;20.136;2023-03-14T00:10:43;40.83;;;14.10;;
55218;SDS011;65463;43.864;20.136;2023-03-14T00:13:09;41.60;;;13.65;;
55218;SDS011;65463;43.864;20.136;2023-03-14T00:15:35;45.78;;;15.70;;
55218;SDS011;65463;43.864;20.136;2023-03-14T00:18:01;47.05;;;14.45;;
55218;SDS011;65463;43.864;20.136;2023-03-14T00:20:27;45.90;;;14.80;;
55218;SDS011;65463;43.864;20.136;2023-03-14T00:22:54;44.97;;;14.35;;
55218;SDS011;65463;43.864;20.136;2023-03-14T00:25:20;41.33;;;14.13;;
55218;SDS011;65463;43.864;20.136;2023-03-14T00:27:46;49.42;;;14.70;;
55218;SDS011;65463;43.864;20.136;2023-03-14T00:30:12;54.25;;;15.32;;
55218;SDS011;65463;43.864;20.136;2023-03-14T00:32:38;47.45;;;14.82;;
55218;SDS011;65463;43.864;20.136;2023-03-14T00:35:04;56.33;;;16.27;;
55218;SDS011;65463;43.864;20.136;2023-03-14T00:37:31;42.97;;;14.95;;
55218;SDS011;65463;43.864;20.136;2023-03-14T00:39:57;43.40;;;15.20;;
55218;SDS011;65463;43.864;20.136;2023-03-14T00:42:23;43.72;;;14.32;;
55218;SDS011;65463;43.864;20.136;2023-03-14T00:44:49;42.20;;;15.10;;
55218;SDS011;65463;43.864;20.136;2023-03-14T00:47:15;42.00;;;14.88;;
55218;SDS011;65463;43.864;20.136;2023-03-14T00:49:42;46.85;;;14.85;;
55218;SDS011;65463;43.864;20.136;2023-03-14T00:52:08;43.33;;;14.98;;
55218;SDS011;65463;43.864;20.136;2023-03-14T00:54:35;43.55;;;15.02;;
55218;SDS011;65463;43.864;20.136;2023-03-14T00:57:01;39.58;;;15.27;;
55218;SDS011;65463;43.864;20.136;2023-03-14T00:59:27;40.17;;;14.52;;
55218;SDS011;65463;43.864;20.136;2023-03-14T01:01:53;43.28;;;16.42;;
55218;SDS011;65463;43.864;20.136;2023-03-14T01:04:19;41.65;;;15.57;;
55218;SDS011;65463;43.864;20.136;2023-03-14T01:06:45;43.97;;;16.02;;
55218;SDS011;65463;43.864;20.136;2023-03-14T01:09:12;44.00;;;15.60;;
55218;SDS011;65463;43.864;20.136;2023-03-14T01:11:38;44.88;;;15.98;;
55218;SDS011;65463;43.864;20.136;2023-03-14T01:14:04;46.20;;;16.40;;
55218;SDS011;65463;43.864;20.136;2023-03-14T01:16:32;41.78;;;15.90;;
55218;SDS011;65463;43.864;20.136;2023-03-14T01:18:59;36.28;;;14.00;;
55218;SDS011;65463;43.864;20.136;2023-03-14T01:21:29;37.63;;;14.60;;
55218;SDS011;65463;43.864;20.136;2023-03-14T01:24:00;39.63;;;14.43;;
55218;SDS011;65463;43.864;20.136;2023-03-14T01:26:30;38.25;;;14.60;;
55218;SDS011;65463;43.864;20.136;2023-03-14T01:28:57;43.63;;;15.15;;
55218;SDS011;65463;43.864;20.136;2023-03-14T01:31:24;40.38;;;14.65;;
55218;SDS011;65463;43.864;20.136;2023-03-14T01:33:50;42.00;;;14.82;;
55218;SDS011;65463;43.864;20.136;2023-03-14T01:36:16;45.53;;;16.10;;
55218;SDS011;65463;43.864;20.136;2023-03-14T01:38:42;34.63;;;13.75;;
55218;SDS011;65463;43.864;20.136;2023-03-14T01:41:12;35.22;;;13.55;;
55218;SDS011;65463;43.864;20.136;2023-03-14T01:43:38;42.78;;;14.10;;
55218;SDS011;65463;43.864;20.136;2023-03-14T01:51:04;41.40;;;14.02;;
55218;SDS011;65463;43.864;20.136;2023-03-14T01:53:34;43.53;;;14.85;;
55218;SDS011;65463;43.864;20.136;2023-03-14T01:56:01;42.28;;;13.88;;
55218;SDS011;65463;43.864;20.136;2023-03-14T01:58:28;35.25;;;13.35;;
55218;SDS011;65463;43.864;20.136;2023-03-14T02:03:25;38.92;;;13.60;;
55218;SDS011;65463;43.864;20.136;2023-03-14T02:05:55;46.10;;;15.25;;
55218;SDS011;65463;43.864;20.136;2023-03-14T02:08:25;37.80;;;15.40;;
55218;SDS011;65463;43.864;20.136;2023-03-14T02:10:52;42.15;;;14.82;;
55218;SDS011;65463;43.864;20.136;2023-03-14T02:13:19;40.85;;;14.82;;
55218;SDS011;65463;43.864;20.136;2023-03-14T02:15:47;42.33;;;14.93;;
55218;SDS011;65463;43.864;20.136;2023-03-14T02:18:17;43.83;;;15.88;;
55218;SDS011;65463;43.864;20.136;2023-03-14T02:20:53;37.28;;;15.70;;
55218;SDS011;65463;43.864;20.136;2023-03-14T02:23:29;42.03;;;14.63;;
55218;SDS011;65463;43.864;20.136;2023-03-14T02:26:27;44.47;;;14.77;;
55218;SDS011;65463;43.864;20.136;2023-03-14T02:29:02;39.53;;;15.02;;
55218;SDS011;65463;43.864;20.136;2023-03-14T02:31:28;43.47;;;14.32;;
55218;SDS011;65463;43.864;20.136;2023-03-14T02:33:54;44.33;;;14.95;;
55218;SDS011;65463;43.864;20.136;2023-03-14T02:36:21;44.35;;;14.63;;
55218;SDS011;65463;43.864;20.136;2023-03-14T02:41:36;37.85;;;14.10;;
55218;SDS011;65463;43.864;20.136;2023-03-14T02:44:02;44.33;;;14.88;;
55218;SDS011;65463;43.864;20.136;2023-03-14T02:46:27;44.42;;;15.02;;
55218;SDS011;65463;43.864;20.136;2023-03-14T02:48:56;44.95;;;15.68;;
55218;SDS011;65463;43.864;20.136;2023-03-14T02:51:26;42.88;;;14.20;;
55218;SDS011;65463;43.864;20.136;2023-03-14T02:53:53;44.58;;;14.73;;
55218;SDS011;65463;43.864;20.136;2023-03-14T02:56:19;39.20;;;14.88;;
55218;SDS011;65463;43.864;20.136;2023-03-14T02:58:45;41.13;;;15.50;;
55218;SDS011;65463;43.864;20.136;2023-03-14T03:01:11;46.20;;;16.30;;
55218;SDS011;65463;43.864;20.136;2023-03-14T03:03:37;38.83;;;15.57;;
55218;SDS011;65463;43.864;20.136;2023-03-14T03:06:03;42.03;;;14.98;;
55218;SDS011;65463;43.864;20.136;2023-03-14T03:08:29;43.90;;;16.15;;
55218;SDS011;65463;43.864;20.136;2023-03-14T03:10:56;37.58;;;14.25;;
55218;SDS011;65463;43.864;20.136;2023-03-14T03:13:23;37.92;;;13.82;;
55218;SDS011;65463;43.864;20.136;2023-03-14T03:15:49;42.03;;;14.50;;
55218;SDS011;65463;43.864;20.136;2023-03-14T03:18:15;33.80;;;13.02;;
55218;SDS011;65463;43.864;20.136;2023-03-14T03:20:41;49.50;;;15.82;;
55218;SDS011;65463;43.864;20.136;2023-03-14T03:23:07;44.78;;;16.08;;
55218;SDS011;65463;43.864;20.136;2023-03-14T03:25:33;40.63;;;14.50;;
55218;SDS011;65463;43.864;20.136;2023-03-14T03:27:58;42.33;;;14.32;;
55218;SDS011;65463;43.864;20.136;2023-03-14T03:30:24;41.10;;;14.45;;
55218;SDS011;65463;43.864;20.136;2023-03-14T03:32:50;43.97;;;14.40;;
55218;SDS011;65463;43.864;20.136;2023-03-14T03:35:16;36.78;;;13.57;;
55218;SDS011;65463;43.864;20.136;2023-03-14T03:37:42;37.88;;;13.98;;
55218;SDS011;65463;43.864;20.136;2023-03-14T03:40:08;34.63;;;13.13;;
55218;SDS011;65463;43.864;20.136;2023-03-14T03:42:34;42.95;;;13.98;;
55218;SDS011;65463;43.864;20.136;2023-03-14T03:45:01;41.65;;;14.02;;
55218;SDS011;65463;43.864;20.136;2023-03-14T03:47:27;43.30;;;14.57;;
55218;SDS011;65463;43.864;20.136;2023-03-14T03:49:55;42.03;;;14.48;;
55218;SDS011;65463;43.864;20.136;2023-03-14T03:52:21;36.13;;;13.70;;
55218;SDS011;65463;43.864;20.136;2023-03-14T03:54:47;37.22;;;13.77;;
55218;SDS011;65463;43.864;20.136;2023-03-14T03:57:13;37.97;;;13.80;;
55218;SDS011;65463;43.864;20.136;2023-03-14T03:59:39;37.47;;;13.13;;
55218;SDS011;65463;43.864;20.136;2023-03-14T04:02:06;37.83;;;14.63;;
55218;SDS011;65463;43.864;20.136;2023-03-14T04:04:32;34.55;;;13.82;;
55218;SDS011;65463;43.864;20.136;2023-03-14T04:06:58;35.85;;;13.23;;
55218;SDS011;65463;43.864;20.136;2023-03-14T04:09:24;40.33;;;13.93;;
55218;SDS011;65463;43.864;20.136;2023-03-14T04:11:50;35.78;;;14.32;;
55218;SDS011;65463;43.864;20.136;2023-03-14T04:14:16;46.95;;;15.02;;
55218;SDS011;65463;43.864;20.136;2023-03-14T04:16:43;37.28;;;14.02;;
55218;SDS011;65463;43.864;20.136;2023-03-14T04:19:08;34.17;;;13.40;;
55218;SDS011;65463;43.864;20.136;2023-03-14T04:21:34;38.88;;;13.68;;
55218;SDS011;65463;43.864;20.136;2023-03-14T04:24:00;38.22;;;14.10;;
55218;SDS011;65463;43.864;20.136;2023-03-14T04:26:26;40.50;;;13.80;;
55218;SDS011;65463;43.864;20.136;2023-03-14T04:28:51;40.95;;;15.20;;
55218;SDS011;65463;43.864;20.136;2023-03-14T04:31:19;33.75;;;13.40;;
55218;SDS011;65463;43.864;20.136;2023-03-14T04:33:46;37.83;;;13.98;;
55218;SDS011;65463;43.864;20.136;2023-03-14T04:36:12;42.03;;;15.18;;
55218;SDS011;65463;43.864;20.136;2023-03-14T04:38:39;48.38;;;16.25;;
55218;SDS011;65463;43.864;20.136;2023-03-14T04:41:05;39.13;;;15.13;;
55218;SDS011;65463;43.864;20.136;2023-03-14T04:43:31;42.20;;;14.95;;
55218;SDS011;65463;43.864;20.136;2023-03-14T04:45:58;42.50;;;14.48;;
55218;SDS011;65463;43.864;20.136;2023-03-14T04:48:24;34.88;;;13.73;;
55218;SDS011;65463;43.864;20.136;2023-03-14T04:50:51;41.97;;;15.50;;
55218;SDS011;65463;43.864;20.136;2023-03-14T04:53:17;49.35;;;15.73;;
55218;SDS011;65463;43.864;20.136;2023-03-14T04:55:50;38.65;;;15.63;;
55218;SDS011;65463;43.864;20.136;2023-03-14T04:58:17;41.95;;;15.40;;
55218;SDS011;65463;43.864;20.136;2023-03-14T05:00:44;44.45;;;14.02;;
55218;SDS011;65463;43.864;20.136;2023-03-14T05:03:10;44.65;;;14.73;;
55218;SDS011;65463;43.864;20.136;2023-03-14T05:05:36;44.83;;;14.77;;
55218;SDS011;65463;43.864;20.136;2023-03-14T05:08:02;40.58;;;14.10;;
55218;SDS011;65463;43.864;20.136;2023-03-14T05:10:29;38.45;;;14.48;;
55218;SDS011;65463;43.864;20.136;2023-03-14T05:12:55;48.20;;;15.88;;
55218;SDS011;65463;43.864;20.136;2023-03-14T05:15:21;45.05;;;15.70;;
55218;SDS011;65463;43.864;20.136;2023-03-14T05:17:47;41.63;;;15.45;;
55218;SDS011;65463;43.864;20.136;2023-03-14T05:20:14;35.70;;;15.05;;
55218;SDS011;65463;43.864;20.136;2023-03-14T05:22:40;40.15;;;15.52;;
55218;SDS011;65463;43.864;20.136;2023-03-14T05:25:07;40.22;;;14.43;;
55218;SDS011;65463;43.864;20.136;2023-03-14T05:27:33;36.75;;;13.90;;
55218;SDS011;65463;43.864;20.136;2023-03-14T05:29:59;37.30;;;13.80;;
55218;SDS011;65463;43.864;20.136;2023-03-14T05:32:25;34.25;;;13.45;;
55218;SDS011;65463;43.864;20.136;2023-03-14T05:34:52;45.05;;;14.90;;
55218;SDS011;65463;43.864;20.136;2023-03-14T05:37:18;42.53;;;14.75;;
55218;SDS011;65463;43.864;20.136;2023-03-14T05:39:44;46.25;;;16.05;;
55218;SDS011;65463;43.864;20.136;2023-03-14T05:42:11;38.45;;;14.80;;
55218;SDS011;65463;43.864;20.136;2023-03-14T05:44:36;46.97;;;15.65;;
55218;SDS011;65463;43.864;20.136;2023-03-14T05:47:03;38.90;;;14.85;;
55218;SDS011;65463;43.864;20.136;2023-03-14T05:49:28;40.92;;;15.88;;
55218;SDS011;65463;43.864;20.136;2023-03-14T05:51:54;34.95;;;14.13;;
55218;SDS011;65463;43.864;20.136;2023-03-14T05:54:20;36.55;;;15.65;;
55218;SDS011;65463;43.864;20.136;2023-03-14T05:56:46;42.42;;;16.00;;
55218;SDS011;65463;43.864;20.136;2023-03-14T05:59:13;41.97;;;17.30;;
55218;SDS011;65463;43.864;20.136;2023-03-14T06:01:39;40.53;;;16.70;;
55218;SDS011;65463;43.864;20.136;2023-03-14T06:04:05;45.55;;;17.20;;
55218;SDS011;65463;43.864;20.136;2023-03-14T06:06:32;39.80;;;16.35;;
55218;SDS011;65463;43.864;20.136;2023-03-14T06:08:58;41.67;;;16.67;;
55218;SDS011;65463;43.864;20.136;2023-03-14T06:11:24;41.38;;;15.95;;
55218;SDS011;65463;43.864;20.136;2023-03-14T06:13:50;43.80;;;16.20;;
55218;SDS011;65463;43.864;20.136;2023-03-14T06:16:16;38.65;;;16.52;;
55218;SDS011;65463;43.864;20.136;2023-03-14T06:18:43;39.42;;;16.42;;
55218;SDS011;65463;43.864;20.136;2023-03-14T06:21:11;38.38;;;16.38;;
55218;SDS011;65463;43.864;20.136;2023-03-14T06:23:37;40.95;;;16.25;;
55218;SDS011;65463;43.864;20.136;2023-03-14T06:26:04;45.05;;;16.90;;
55218;SDS011;65463;43.864;20.136;2023-03-14T06:28:30;35.75;;;17.27;;
55218;SDS011;65463;43.864;20.136;2023-03-14T06:31:01;39.83;;;16.83;;
55218;SDS011;65463;43.864;20.136;2023-03-14T06:33:27;42.17;;;16.05;;
55218;SDS011;65463;43.864;20.136;2023-03-14T06:35:54;41.70;;;16.40;;
55218;SDS011;65463;43.864;20.136;2023-03-14T06:38:20;42.08;;;16.98;;
55218;SDS011;65463;43.864;20.136;2023-03-14T06:40:46;42.67;;;17.33;;
55218;SDS011;65463;43.864;20.136;2023-03-14T06:43:12;40.20;;;16.98;;
55218;SDS011;65463;43.864;20.136;2023-03-14T06:45:38;43.72;;;15.95;;
55218;SDS011;65463;43.864;20.136;2023-03-14T06:48:04;55.10;;;20.55;;
55218;SDS011;65463;43.864;20.136;2023-03-14T06:50:31;72.00;;;23.70;;
55218;SDS011;65463;43.864;20.136;2023-03-14T06:52:57;62.42;;;23.92;;
55218;SDS011;65463;43.864;20.136;2023-03-14T06:55:23;56.08;;;19.88;;
55218;SDS011;65463;43.864;20.136;2023-03-14T06:57:49;49.50;;;18.60;;
55218;SDS011;65463;43.864;20.136;2023-03-14T07:00:16;44.85;;;16.75;;
55218;SDS011;65463;43.864;20.136;2023-03-14T07:02:42;47.13;;;17.10;;
55218;SDS011;65463;43.864;20.136;2023-03-14T07:05:09;49.22;;;17.13;;
55218;SDS011;65463;43.864;20.136;2023-03-14T07:07:35;42.72;;;17.27;;
55218;SDS011;65463;43.864;20.136;2023-03-14T07:10:01;57.85;;;17.42;;
55218;SDS011;65463;43.864;20.136;2023-03-14T07:12:28;49.53;;;17.05;;
55218;SDS011;65463;43.864;20.136;2023-03-14T07:14:54;50.42;;;17.58;;
55218;SDS011;65463;43.864;20.136;2023-03-14T07:17:20;42.15;;;17.35;;
55218;SDS011;65463;43.864;20.136;2023-03-14T07:19:46;41.67;;;17.80;;
55218;SDS011;65463;43.864;20.136;2023-03-14T07:22:12;48.75;;;18.23;;
55218;SDS011;65463;43.864;20.136;2023-03-14T07:24:38;55.05;;;20.58;;
55218;SDS011;65463;43.864;20.136;2023-03-14T07:27:04;46.35;;;18.35;;
55218;SDS011;65463;43.864;20.136;2023-03-14T07:29:30;48.20;;;18.60;;
55218;SDS011;65463;43.864;20.136;2023-03-14T07:31:57;53.88;;;22.42;;
55218;SDS011;65463;43.864;20.136;2023-03-14T07:34:23;48.75;;;18.08;;
55218;SDS011;65463;43.864;20.136;2023-03-14T07:36:49;48.28;;;18.42;;
55218;SDS011;65463;43.864;20.136;2023-03-14T07:39:15;45.38;;;18.58;;
55218;SDS011;65463;43.864;20.136;2023-03-14T07:41:41;46.83;;;18.10;;
55218;SDS011;65463;43.864;20.136;2023-03-14T07:44:08;49.08;;;17.77;;
55218;SDS011;65463;43.864;20.136;2023-03-14T07:46:34;49.08;;;17.98;;
55218;SDS011;65463;43.864;20.136;2023-03-14T07:49:00;42.75;;;17.58;;
55218;SDS011;65463;43.864;20.136;2023-03-14T07:51:26;46.17;;;16.90;;
55218;SDS011;65463;43.864;20.136;2023-03-14T07:53:52;49.13;;;18.63;;
55218;SDS011;65463;43.864;20.136;2023-03-14T07:56:18;45.38;;;17.95;;
55218;SDS011;65463;43.864;20.136;2023-03-14T07:58:44;44.45;;;17.65;;
55218;SDS011;65463;43.864;20.136;2023-03-14T08:01:10;46.15;;;18.40;;
55218;SDS011;65463;43.864;20.136;2023-03-14T08:03:37;40.28;;;17.58;;
55218;SDS011;65463;43.864;20.136;2023-03-14T08:06:03;43.92;;;16.17;;
55218;SDS011;65463;43.864;20.136;2023-03-14T08:08:29;41.42;;;16.50;;
55218;SDS011;65463;43.864;20.136;2023-03-14T08:10:55;44.53;;;16.73;;
55218;SDS011;65463;43.864;20.136;2023-03-14T08:13:21;43.10;;;17.35;;
55218;SDS011;65463;43.864;20.136;2023-03-14T08:15:50;45.72;;;17.48;;
55218;SDS011;65463;43.864;20.136;2023-03-14T08:18:16;41.05;;;16.33;;
55218;SDS011;65463;43.864;20.136;2023-03-14T08:20:42;39.80;;;16.20;;
55218;SDS011;65463;43.864;20.136;2023-03-14T08:23:08;45.83;;;16.48;;
55218;SDS011;65463;43.864;20.136;2023-03-14T08:25:34;41.38;;;16.75;;
55218;SDS011;65463;43.864;20.136;2023-03-14T08:28:01;45.50;;;16.63;;
55218;SDS011;65463;43.864;20.136;2023-03-14T08:30:27;41.63;;;16.80;;
55218;SDS011;65463;43.864;20.136;2023-03-14T08:32:55;44.67;;;17.15;;
55218;SDS011;65463;43.864;20.136;2023-03-14T08:35:22;52.83;;;18.02;;
55218;SDS011;65463;43.864;20.136;2023-03-14T08:37:48;49.58;;;18.13;;
55218;SDS011;65463;43.864;20.136;2023-03-14T08:40:15;38.53;;;16.80;;
55218;SDS011;65463;43.864;20.136;2023-03-14T08:42:42;40.03;;;16.92;;
55218;SDS011;65463;43.864;20.136;2023-03-14T08:45:08;41.08;;;16.30;;
55218;SDS011;65463;43.864;20.136;2023-03-14T08:47:35;33.45;;;16.42;;
55218;SDS011;65463;43.864;20.136;2023-03-14T08:50:01;36.88;;;16.52;;
55218;SDS011;65463;43.864;20.136;2023-03-14T08:52:29;38.05;;;16.90;;
55218;SDS011;65463;43.864;20.136;2023-03-14T08:54:56;51.55;;;17.75;;
55218;SDS011;65463;43.864;20.136;2023-03-14T08:57:22;39.75;;;18.05;;
55218;SDS011;65463;43.864;20.136;2023-03-14T08:59:53;47.03;;;20.48;;
55218;SDS011;65463;43.864;20.136;2023-03-14T09:02:20;43.60;;;17.13;;
55218;SDS011;65463;43.864;20.136;2023-03-14T09:04:46;46.38;;;16.90;;
55218;SDS011;65463;43.864;20.136;2023-03-14T09:07:12;44.13;;;16.75;;
55218;SDS011;65463;43.864;20.136;2023-03-14T09:09:38;40.13;;;16.80;;
55218;SDS011;65463;43.864;20.136;2023-03-14T09:12:05;51.38;;;18.13;;
55218;SDS011;65463;43.864;20.136;2023-03-14T09:14:31;46.03;;;18.05;;
55218;SDS011;65463;43.864;20.136;2023-03-14T09:16:58;43.78;;;17.27;;
55218;SDS011;65463;43.864;20.136;2023-03-14T09:19:25;45.33;;;17.85;;
55218;SDS011;65463;43.864;20.136;2023-03-14T09:21:53;49.20;;;17.40;;
55218;SDS011;65463;43.864;20.136;2023-03-14T09:24:22;46.58;;;18.15;;
55218;SDS011;65463;43.864;20.136;2023-03-14T09:26:48;43.65;;;16.70;;
55218;SDS011;65463;43.864;20.136;2023-03-14T09:29:14;42.05;;;16.65;;
55218;SDS011;65463;43.864;20.136;2023-03-14T09:31:41;31.48;;;12.77;;
55218;SDS011;65463;43.864;20.136;2023-03-14T09:34:07;44.70;;;15.82;;
55218;SDS011;65463;43.864;20.136;2023-03-14T09:36:35;37.15;;;16.02;;
55218;SDS011;65463;43.864;20.136;2023-03-14T09:39:03;41.00;;;16.55;;
55218;SDS011;65463;43.864;20.136;2023-03-14T09:41:30;39.15;;;16.35;;
55218;SDS011;65463;43.864;20.136;2023-03-14T09:44:04;35.85;;;16.75;;
55218;SDS011;65463;43.864;20.136;2023-03-14T09:46:34;42.40;;;18.00;;
55218;SDS011;65463;43.864;20.136;2023-03-14T09:49:02;40.40;;;16.73;;
55218;SDS011;65463;43.864;20.136;2023-03-14T09:51:47;42.67;;;16.85;;
55218;SDS011;65463;43.864;20.136;2023-03-14T09:54:29;44.15;;;16.00;;
55218;SDS011;65463;43.864;20.136;2023-03-14T09:56:56;41.63;;;15.18;;
55218;SDS011;65463;43.864;20.136;2023-03-14T09:59:22;32.60;;;15.32;;
55218;SDS011;65463;43.864;20.136;2023-03-14T10:01:48;38.72;;;15.85;;
55218;SDS011;65463;43.864;20.136;2023-03-14T10:04:15;39.72;;;15.95;;
55218;SDS011;65463;43.864;20.136;2023-03-14T10:06:43;42.85;;;16.25;;
55218;SDS011;65463;43.864;20.136;2023-03-14T10:09:14;41.15;;;16.05;;
55218;SDS011;65463;43.864;20.136;2023-03-14T10:11:43;37.65;;;15.70;;
55218;SDS011;65463;43.864;20.136;2023-03-14T10:14:10;29.98;;;13.45;;
55218;SDS011;65463;43.864;20.136;2023-03-14T10:16:45;29.10;;;12.73;;
55218;SDS011;65463;43.864;20.136;2023-03-14T10:19:12;32.03;;;12.55;;
55218;SDS011;65463;43.864;20.136;2023-03-14T10:21:52;33.42;;;13.20;;
55218;SDS011;65463;43.864;20.136;2023-03-14T10:26:49;37.35;;;15.93;;
55218;SDS011;65463;43.864;20.136;2023-03-14T10:29:15;43.58;;;17.95;;
55218;SDS011;65463;43.864;20.136;2023-03-14T10:31:54;47.65;;;19.67;;
55218;SDS011;65463;43.864;20.136;2023-03-14T10:34:25;46.33;;;18.50;;
55218;SDS011;65463;43.864;20.136;2023-03-14T10:36:51;38.75;;;15.95;;
55218;SDS011;65463;43.864;20.136;2023-03-14T10:39:29;39.25;;;15.68;;
55218;SDS011;65463;43.864;20.136;2023-03-14T10:42:39;33.45;;;15.02;;
55218;SDS011;65463;43.864;20.136;2023-03-14T10:44:45;32.38;;;13.93;;
55218;SDS011;65463;43.864;20.136;2023-03-14T10:47:19;33.72;;;13.77;;
55218;SDS011;65463;43.864;20.136;2023-03-14T10:49:48;31.02;;;13.35;;
55218;SDS011;65463;43.864;20.136;2023-03-14T10:52:18;32.45;;;14.25;;
55218;SDS011;65463;43.864;20.136;2023-03-14T10:55:08;37.10;;;14.65;;
55218;SDS011;65463;43.864;20.136;2023-03-14T10:57:38;32.80;;;14.48;;
55218;SDS011;65463;43.864;20.136;2023-03-14T11:00:05;33.95;;;14.32;;
55218;SDS011;65463;43.864;20.136;2023-03-14T11:05:27;37.05;;;14.95;;
55218;SDS011;65463;43.864;20.136;2023-03-14T11:08:01;36.30;;;15.97;;
55218;SDS011;65463;43.864;20.136;2023-03-14T11:10:33;28.60;;;12.40;;
55218;SDS011;65463;43.864;20.136;2023-03-14T11:20:53;22.02;;;9.82;;
55218;SDS011;65463;43.864;20.136;2023-03-14T11:23:22;26.45;;;10.57;;
55218;SDS011;65463;43.864;20.136;2023-03-14T11:26:09;26.20;;;10.50;;
55218;SDS011;65463;43.864;20.136;2023-03-14T11:28:40;24.80;;;9.88;;
55218;SDS011;65463;43.864;20.136;2023-03-14T11:31:14;29.15;;;12.07;;
55218;SDS011;65463;43.864;20.136;2023-03-14T11:36:21;24.23;;;10.75;;
55218;SDS011;65463;43.864;20.136;2023-03-14T11:38:52;25.67;;;9.98;;
55218;SDS011;65463;43.864;20.136;2023-03-14T11:41:30;28.85;;;9.73;;
55218;SDS011;65463;43.864;20.136;2023-03-14T11:43:58;27.95;;;9.55;;
55218;SDS011;65463;43.864;20.136;2023-03-14T11:46:26;28.60;;;10.02;;
55218;SDS011;65463;43.864;20.136;2023-03-14T11:51:35;29.87;;;10.53;;
55218;SDS011;65463;43.864;20.136;2023-03-14T11:56:55;31.13;;;8.95;;
55218;SDS011;65463;43.864;20.136;2023-03-14T11:59:27;28.27;;;9.40;;
55218;SDS011;65463;43.864;20.136;2023-03-14T12:01:59;32.03;;;9.10;;
55218;SDS011;65463;43.864;20.136;2023-03-14T12:07:23;37.38;;;7.78;;
55218;SDS011;65463;43.864;20.136;2023-03-14T12:10:26;30.08;;;7.45;;
55218;SDS011;65463;43.864;20.136;2023-03-14T12:12:52;33.85;;;7.80;;
55218;SDS011;65463;43.864;20.136;2023-03-14T12:15:19;32.28;;;5.82;;
55218;SDS011;65463;43.864;20.136;2023-03-14T12:17:47;37.05;;;6.53;;
55218;SDS011;65463;43.864;20.136;2023-03-14T12:20:21;26.65;;;5.50;;
55218;SDS011;65463;43.864;20.136;2023-03-14T12:22:49;31.48;;;5.65;;
55218;SDS011;65463;43.864;20.136;2023-03-14T12:25:18;20.73;;;5.35;;
55218;SDS011;65463;43.864;20.136;2023-03-14T12:30:18;20.40;;;5.90;;
55218;SDS011;65463;43.864;20.136;2023-03-14T12:38:12;15.40;;;5.63;;
55218;SDS011;65463;43.864;20.136;2023-03-14T12:41:01;17.95;;;6.35;;
55218;SDS011;65463;43.864;20.136;2023-03-14T12:43:32;15.48;;;5.70;;
55218;SDS011;65463;43.864;20.136;2023-03-14T12:49:04;13.30;;;5.90;;
55218;SDS011;65463;43.864;20.136;2023-03-14T12:51:34;13.20;;;5.10;;
55218;SDS011;65463;43.864;20.136;2023-03-14T12:59:37;14.27;;;5.50;;
55218;SDS011;65463;43.864;20.136;2023-03-14T13:07:00;13.02;;;6.03;;
55218;SDS011;65463;43.864;20.136;2023-03-14T13:12:11;10.02;;;4.43;;
55218;SDS011;65463;43.864;20.136;2023-03-14T13:17:05;9.90;;;4.72;;
55218;SDS011;65463;43.864;20.136;2023-03-14T13:19:31;8.15;;;4.35;;
55218;SDS011;65463;43.864;20.136;2023-03-14T13:22:04;8.38;;;4.40;;
55218;SDS011;65463;43.864;20.136;2023-03-14T13:24:32;8.77;;;4.72;;
55218;SDS011;65463;43.864;20.136;2023-03-14T13:26:59;9.45;;;4.63;;
55218;SDS011;65463;43.864;20.136;2023-03-14T13:29:26;9.77;;;4.95;;
55218;SDS011;65463;43.864;20.136;2023-03-14T13:31:57;13.02;;;4.82;;
55218;SDS011;65463;43.864;20.136;2023-03-14T13:36:53;14.63;;;5.65;;
55218;SDS011;65463;43.864;20.136;2023-03-14T13:39:20;18.92;;;5.53;;
55218;SDS011;65463;43.864;20.136;2023-03-14T13:41:54;12.80;;;4.97;;
55218;SDS011;65463;43.864;20.136;2023-03-14T13:46:46;14.90;;;6.00;;
55218;SDS011;65463;43.864;20.136;2023-03-14T13:49:15;12.40;;;4.88;;
55218;SDS011;65463;43.864;20.136;2023-03-14T13:51:42;15.25;;;5.18;;
55218;SDS011;65463;43.864;20.136;2023-03-14T13:54:16;12.10;;;5.28;;
55218;SDS011;65463;43.864;20.136;2023-03-14T13:56:43;11.75;;;5.28;;
55218;SDS011;65463;43.864;20.136;2023-03-14T13:59:22;16.35;;;5.68;;
55218;SDS011;65463;43.864;20.136;2023-03-14T14:01:48;23.48;;;6.63;;
55218;SDS011;65463;43.864;20.136;2023-03-14T14:04:15;23.10;;;6.25;;
55218;SDS011;65463;43.864;20.136;2023-03-14T14:06:53;18.73;;;6.85;;
55218;SDS011;65463;43.864;20.136;2023-03-14T14:09:20;13.75;;;5.65;;
55218;SDS011;65463;43.864;20.136;2023-03-14T14:14:21;29.67;;;11.50;;
55218;SDS011;65463;43.864;20.136;2023-03-14T14:16:51;32.78;;;11.45;;
55218;SDS011;65463;43.864;20.136;2023-03-14T14:19:17;26.52;;;9.98;;
55218;SDS011;65463;43.864;20.136;2023-03-14T14:21:45;24.85;;;9.70;;
55218;SDS011;65463;43.864;20.136;2023-03-14T14:24:12;23.63;;;8.43;;
55218;SDS011;65463;43.864;20.136;2023-03-14T14:26:40;24.67;;;8.27;;
55218;SDS011;65463;43.864;20.136;2023-03-14T14:29:16;22.52;;;8.07;;
55218;SDS011;65463;43.864;20.136;2023-03-14T14:31:47;19.65;;;7.47;;
55218;SDS011;65463;43.864;20.136;2023-03-14T14:34:24;16.25;;;7.05;;
55218;SDS011;65463;43.864;20.136;2023-03-14T14:36:55;19.13;;;7.13;;
55218;SDS011;65463;43.864;20.136;2023-03-14T14:39:23;18.27;;;7.70;;
55218;SDS011;65463;43.864;20.136;2023-03-14T14:41:50;15.13;;;6.35;;
55218;SDS011;65463;43.864;20.136;2023-03-14T14:44:18;15.40;;;6.63;;
55218;SDS011;65463;43.864;20.136;2023-03-14T14:46:45;17.33;;;6.80;;
55218;SDS011;65463;43.864;20.136;2023-03-14T14:49:13;16.73;;;7.03;;
55218;SDS011;65463;43.864;20.136;2023-03-14T14:51:43;25.98;;;8.30;;
55218;SDS011;65463;43.864;20.136;2023-03-14T14:54:11;20.33;;;7.18;;
55218;SDS011;65463;43.864;20.136;2023-03-14T14:56:37;27.30;;;9.23;;
55218;SDS011;65463;43.864;20.136;2023-03-14T14:59:04;18.42;;;6.20;;
55218;SDS011;65463;43.864;20.136;2023-03-14T15:01:38;21.15;;;7.65;;
55218;SDS011;65463;43.864;20.136;2023-03-14T15:04:09;18.10;;;6.70;;
55218;SDS011;65463;43.864;20.136;2023-03-14T15:06:37;10.65;;;3.78;;
55218;SDS011;65463;43.864;20.136;2023-03-14T15:09:04;7.65;;;2.83;;
55218;SDS011;65463;43.864;20.136;2023-03-14T15:11:30;6.82;;;2.22;;
55218;SDS011;65463;43.864;20.136;2023-03-14T15:13:57;25.25;;;11.52;;
55218;SDS011;65463;43.864;20.136;2023-03-14T15:16:27;10.20;;;4.93;;
55218;SDS011;65463;43.864;20.136;2023-03-14T15:18:55;34.28;;;13.68;;
55218;SDS011;65463;43.864;20.136;2023-03-14T15:21:21;30.45;;;14.77;;
55218;SDS011;65463;43.864;20.136;2023-03-14T15:23:48;11.63;;;5.60;;